Time;durP1;ratioP1;P1;durP2;ratioP2;P2;SDS_P1;SDS_P2;PMS_P1;PMS_P2;Temp;Humidity;BMP_temperature;BMP_pressure;BME280_temperature;BME280_humidity;BME280_pressure;Samples;Min_cycle;Max_cycle;Signal;HPM_P1;HPM_P2
2021/01/17 00:00:23;;;;;;;0.70;0.70;;;-0.50;99.90;;;;;;5029623;28;20412;-75
2021/01/17 00:02:53;;;;;;;0.40;0.40;;;-0.50;99.90;;;;;;5034448;28;20294;-76
2021/01/17 00:05:20;;;;;;;0.40;0.40;;;-0.60;99.90;;;;;;5034573;28;20323;-79
2021/01/17 00:07:46;;;;;;;0.30;0.30;;;-0.60;99.90;;;;;;5033733;28;20588;-74
2021/01/17 00:10:14;;;;;;;0.30;0.30;;;-0.70;99.90;;;;;;5015010;28;20181;-76
2021/01/17 00:12:40;;;;;;;0.30;0.30;;;-0.70;99.90;;;;;;5014211;28;20484;-74
2021/01/17 00:15:11;;;;;;;0.30;0.30;;;-0.60;99.90;;;;;;5034041;28;20642;-79
2021/01/17 00:17:41;;;;;;;0.30;0.30;;;-0.60;99.90;;;;;;5033898;28;20174;-77
2021/01/17 00:20:20;;;;;;;0.30;0.30;;;-0.50;99.90;;;;;;5033098;28;20166;-76
2021/01/17 00:22:47;;;;;;;0.30;0.30;;;-0.50;99.90;;;;;;5015400;28;20271;-74
2021/01/17 00:25:15;;;;;;;0.40;0.40;;;-0.60;99.90;;;;;;5033263;28;20170;-76
2021/01/17 00:27:41;;;;;;;1.85;1.75;;;-0.70;99.90;;;;;;5027782;28;20242;-77
2021/01/17 00:30:09;;;;;;;0.30;0.30;;;-0.70;99.90;;;;;;5024371;28;20166;-76
2021/01/17 00:32:35;;;;;;;0.40;0.40;;;-0.70;99.90;;;;;;5014487;28;20685;-76
2021/01/17 00:35:02;;;;;;;0.40;0.40;;;-0.70;99.90;;;;;;5031521;28;20749;-75
2021/01/17 00:37:28;;;;;;;0.30;0.30;;;-0.60;99.90;;;;;;5014075;28;20673;-75
2021/01/17 00:39:54;;;;;;;1.50;1.50;;;-0.70;99.90;;;;;;5012990;28;20175;-79
2021/01/17 00:42:19;;;;;;;0.30;0.30;;;-0.70;99.90;;;;;;5029089;28;20515;-76
2021/01/17 00:44:45;;;;;;;0.47;0.47;;;-0.80;99.90;;;;;;5027205;28;20183;-77
2021/01/17 00:47:12;;;;;;;0.40;0.40;;;-0.80;99.90;;;;;;5013291;28;20187;-75
2021/01/17 00:49:38;;;;;;;0.90;0.90;;;-0.70;99.90;;;;;;5013786;28;20429;-78
2021/01/17 00:52:04;;;;;;;0.40;0.40;;;-0.70;99.90;;;;;;5013551;28;20258;-77
2021/01/17 00:54:29;;;;;;;0.40;0.40;;;-0.70;99.90;;;;;;5027717;28;20194;-78
2021/01/17 00:56:55;;;;;;;3.33;3.13;;;-0.80;99.90;;;;;;5032583;28;20176;-75
2021/01/17 00:59:21;;;;;;;0.50;0.50;;;-0.80;99.90;;;;;;5033817;28;20258;-79
2021/01/17 01:01:48;;;;;;;0.30;0.30;;;-0.80;99.90;;;;;;5013413;28;20190;-78
2021/01/17 01:04:17;;;;;;;0.30;0.30;;;-0.90;99.90;;;;;;5024753;28;20210;-77
2021/01/17 01:06:43;;;;;;;0.40;0.40;;;-0.90;99.90;;;;;;5031747;28;20521;-79
2021/01/17 01:09:11;;;;;;;0.43;0.43;;;-0.90;99.90;;;;;;5034357;28;20185;-77
2021/01/17 01:11:37;;;;;;;0.40;0.40;;;-0.80;99.90;;;;;;5016794;28;20310;-76
2021/01/17 01:14:07;;;;;;;3.78;3.58;;;-0.90;99.90;;;;;;5021989;28;20189;-77
2021/01/17 01:16:33;;;;;;;0.30;0.30;;;-0.80;99.90;;;;;;5032338;28;20228;-78
2021/01/17 01:18:59;;;;;;;0.50;0.50;;;-0.90;99.90;;;;;;5024587;28;20179;-77
2021/01/17 01:21:28;;;;;;;1.40;1.30;;;-0.80;99.90;;;;;;5013323;28;20596;-76
2021/01/17 01:23:54;;;;;;;0.38;0.38;;;-0.80;99.90;;;;;;5020893;28;20201;-79
2021/01/17 01:26:21;;;;;;;0.50;0.50;;;-0.80;99.90;;;;;;5032791;28;20178;-76
2021/01/17 01:28:54;;;;;;;0.40;0.40;;;-0.90;99.90;;;;;;5032197;28;20189;-77
2021/01/17 01:31:22;;;;;;;0.30;0.30;;;-0.90;99.90;;;;;;5026861;28;20178;-77
2021/01/17 01:33:48;;;;;;;0.40;0.40;;;-0.90;99.90;;;;;;5031651;28;20190;-75
2021/01/17 01:36:27;;;;;;;0.30;0.30;;;-0.90;99.90;;;;;;5033263;28;20182;-75
2021/01/17 01:38:53;;;;;;;0.30;0.30;;;-0.90;99.90;;;;;;5035544;28;20211;-75
2021/01/17 01:41:19;;;;;;;3.45;2.42;;;-0.90;99.90;;;;;;5037084;28;20291;-78
2021/01/17 01:43:45;;;;;;;0.63;0.63;;;-0.90;99.90;;;;;;5034656;28;20189;-74
2021/01/17 01:46:14;;;;;;;0.30;0.30;;;-0.90;99.90;;;;;;5037147;28;20166;-77
2021/01/17 01:48:41;;;;;;;0.30;0.30;;;-1.00;99.90;;;;;;5030666;28;20527;-75
2021/01/17 01:51:07;;;;;;;0.30;0.30;;;-0.90;99.90;;;;;;5015937;28;20625;-75
2021/01/17 01:53:33;;;;;;;2.40;1.53;;;-1.00;99.90;;;;;;5026401;28;20268;-73
2021/01/17 01:56:00;;;;;;;0.30;0.30;;;-1.00;99.90;;;;;;5037149;28;20482;-77
2021/01/17 01:58:28;;;;;;;0.30;0.30;;;-1.10;99.90;;;;;;5033890;28;20170;-76
2021/01/17 02:00:54;;;;;;;0.30;0.30;;;-1.10;99.90;;;;;;5017231;28;20270;-74
2021/01/17 02:03:20;;;;;;;0.30;0.30;;;-1.00;99.90;;;;;;5022069;28;20197;-76
2021/01/17 02:05:46;;;;;;;0.30;0.30;;;-1.10;99.90;;;;;;5036835;28;20225;-75
2021/01/17 02:08:36;;;;;;;0.30;0.30;;;-1.10;99.90;;;;;;5032054;28;20270;-76
2021/01/17 02:11:22;;;;;;;0.30;0.30;;;-1.10;99.90;;;;;;5017353;28;20386;-75
2021/01/17 02:14:00;;;;;;;1.48;1.48;;;-1.10;99.90;;;;;;5028078;28;20251;-74
2021/01/17 02:16:28;;;;;;;0.40;0.40;;;-1.10;99.90;;;;;;5038013;28;20179;-78
2021/01/17 02:18:57;;;;;;;0.40;0.40;;;-1.10;99.90;;;;;;5035418;28;20244;-77
2021/01/17 02:21:23;;;;;;;0.30;0.30;;;-1.10;99.90;;;;;;5034849;28;20174;-77
2021/01/17 02:23:58;;;;;;;0.30;0.30;;;-1.00;99.90;;;;;;5032489;28;20301;-73
2021/01/17 02:26:24;;;;;;;0.30;0.30;;;-1.00;99.90;;;;;;5036065;28;20412;-75
2021/01/17 02:28:51;;;;;;;0.50;0.50;;;-1.00;99.90;;;;;;5015477;28;20175;-74
2021/01/17 02:31:18;;;;;;;1.20;1.17;;;-1.00;99.90;;;;;;5016295;28;20170;-75
2021/01/17 02:33:46;;;;;;;0.30;0.30;;;-1.00;99.90;;;;;;5035129;28;20296;-74
2021/01/17 02:36:34;;;;;;;0.30;0.30;;;-1.00;99.90;;;;;;5035986;28;20178;-78
2021/01/17 02:39:24;;;;;;;1.45;1.45;;;-1.00;99.90;;;;;;5016481;28;20175;-75
2021/01/17 02:42:04;;;;;;;1.75;1.48;;;-1.00;99.90;;;;;;5014938;28;20259;-75
2021/01/17 02:44:31;;;;;;;0.40;0.40;;;-0.90;99.90;;;;;;5033653;28;20198;-77
2021/01/17 02:46:58;;;;;;;0.40;0.40;;;-1.00;99.90;;;;;;5035356;28;20908;-75
2021/01/17 02:49:23;;;;;;;0.30;0.30;;;-0.90;99.90;;;;;;5034775;28;20692;-77
2021/01/17 02:51:50;;;;;;;0.30;0.30;;;-0.90;99.90;;;;;;5033946;28;20205;-75
2021/01/17 02:54:22;;;;;;;0.40;0.40;;;-0.90;99.90;;;;;;5035359;28;20541;-76
2021/01/17 02:57:06;;;;;;;0.30;0.30;;;-0.90;99.90;;;;;;5033919;28;20174;-75
2021/01/17 02:59:54;;;;;;;0.50;0.50;;;-0.90;99.90;;;;;;5035916;28;20569;-75
2021/01/17 03:02:26;;;;;;;0.30;0.30;;;-0.90;99.90;;;;;;5028543;28;20175;-73
2021/01/17 03:04:59;;;;;;;0.30;0.30;;;-1.00;99.90;;;;;;5034555;28;20284;-75
2021/01/17 03:07:26;;;;;;;1.35;1.25;;;-0.90;99.90;;;;;;5033906;28;20184;-76
2021/01/17 03:09:52;;;;;;;0.30;0.30;;;-0.90;99.90;;;;;;5035700;28;20220;-75
2021/01/17 03:12:18;;;;;;;0.30;0.30;;;-0.90;99.90;;;;;;5022242;28;20675;-74
2021/01/17 03:14:47;;;;;;;0.30;0.30;;;-1.00;99.90;;;;;;5033731;28;20421;-75
2021/01/17 03:17:13;;;;;;;0.30;0.30;;;-1.00;99.90;;;;;;5035155;28;20170;-74
2021/01/17 03:19:39;;;;;;;0.30;0.30;;;-0.90;99.90;;;;;;5035184;28;20242;-76
2021/01/17 03:22:04;;;;;;;0.30;0.30;;;-0.90;99.90;;;;;;5034484;28;20253;-74
2021/01/17 03:24:30;;;;;;;0.70;0.70;;;-0.90;99.90;;;;;;5033935;28;20194;-74
2021/01/17 03:26:56;;;;;;;0.30;0.30;;;-0.80;99.90;;;;;;5028987;28;20242;-75
2021/01/17 03:29:21;;;;;;;0.30;0.30;;;-0.90;99.90;;;;;;5018191;28;20432;-74
2021/01/17 03:31:47;;;;;;;0.30;0.30;;;-0.90;99.90;;;;;;5033817;28;20198;-74
2021/01/17 03:34:13;;;;;;;0.40;0.40;;;-0.90;99.90;;;;;;5035140;28;20279;-72
2021/01/17 03:36:38;;;;;;;0.30;0.30;;;-0.80;99.90;;;;;;5032601;28;20432;-77
2021/01/17 03:39:05;;;;;;;0.40;0.40;;;-0.80;99.90;;;;;;5029492;28;20201;-75
2021/01/17 03:41:31;;;;;;;0.40;0.40;;;-0.80;99.90;;;;;;5034275;28;20179;-76
2021/01/17 03:43:56;;;;;;;0.40;0.40;;;-0.80;99.90;;;;;;5033640;28;20217;-72
2021/01/17 03:46:22;;;;;;;0.40;0.40;;;-0.80;99.90;;;;;;5035090;28;20180;-74
2021/01/17 03:48:49;;;;;;;0.40;0.40;;;-0.80;99.90;;;;;;5033770;28;20240;-75
2021/01/17 03:51:15;;;;;;;0.30;0.30;;;-0.80;99.90;;;;;;5035392;28;20170;-75
2021/01/17 03:53:40;;;;;;;0.80;0.80;;;-0.90;99.90;;;;;;5020941;28;20278;-74
2021/01/17 03:56:06;;;;;;;0.30;0.30;;;-0.90;99.90;;;;;;5024305;28;20186;-72
2021/01/17 03:58:31;;;;;;;0.30;0.30;;;-0.90;99.90;;;;;;5036436;28;20170;-74
2021/01/17 04:01:00;;;;;;;0.73;0.73;;;-0.90;99.90;;;;;;5033381;28;20554;-74
2021/01/17 04:03:26;;;;;;;0.30;0.30;;;-0.90;99.90;;;;;;5034200;28;20194;-75
2021/01/17 04:05:51;;;;;;;0.50;0.50;;;-0.80;99.90;;;;;;5032069;28;20182;-74
2021/01/17 04:08:17;;;;;;;0.30;0.30;;;-0.90;99.90;;;;;;5014841;28;20702;-75
2021/01/17 04:10:43;;;;;;;0.40;0.40;;;-0.80;99.90;;;;;;5028928;28;20638;-74
2021/01/17 04:13:08;;;;;;;0.53;0.53;;;-0.80;99.90;;;;;;5032593;28;20597;-74
2021/01/17 04:15:34;;;;;;;0.30;0.30;;;-0.90;99.90;;;;;;5028680;28;20175;-73
2021/01/17 04:17:59;;;;;;;0.30;0.30;;;-0.80;99.90;;;;;;5014533;28;20175;-73
2021/01/17 04:20:25;;;;;;;0.30;0.30;;;-0.80;99.90;;;;;;5026544;28;20172;-72
2021/01/17 04:22:51;;;;;;;0.40;0.40;;;-0.70;99.90;;;;;;5034043;28;20200;-74
2021/01/17 04:25:16;;;;;;;0.40;0.40;;;-0.80;99.90;;;;;;5032043;28;20265;-74
2021/01/17 04:27:42;;;;;;;0.40;0.40;;;-0.80;99.90;;;;;;5014561;28;20175;-74
2021/01/17 04:30:09;;;;;;;0.30;0.30;;;-0.80;99.90;;;;;;5022680;28;20248;-76
2021/01/17 04:32:38;;;;;;;0.30;0.30;;;-0.90;99.90;;;;;;5033573;28;20260;-73
2021/01/17 04:35:05;;;;;;;0.30;0.30;;;-0.80;99.90;;;;;;5034036;28;20656;-73
2021/01/17 04:37:30;;;;;;;0.40;0.40;;;-0.90;99.90;;;;;;5032947;28;20189;-74
2021/01/17 04:39:56;;;;;;;0.67;0.67;;;-0.80;99.90;;;;;;5031989;28;20261;-74
2021/01/17 04:42:23;;;;;;;0.30;0.30;;;-0.80;99.90;;;;;;5033546;28;20174;-74
2021/01/17 04:44:52;;;;;;;0.38;0.38;;;-0.80;99.90;;;;;;5020557;28;20253;-75
2021/01/17 04:47:19;;;;;;;0.80;0.80;;;-0.80;99.90;;;;;;5013963;28;20186;-74
2021/01/17 04:49:52;;;;;;;0.40;0.40;;;-0.90;99.90;;;;;;5023884;28;20265;-75
2021/01/17 04:52:21;;;;;;;0.40;0.40;;;-0.90;99.90;;;;;;5033449;28;20198;-72
2021/01/17 04:54:49;;;;;;;0.40;0.40;;;-1.00;99.90;;;;;;5015128;28;20182;-73
2021/01/17 04:57:41;;;;;;;2.70;2.40;;;-0.90;99.90;;;;;;5012516;28;20706;-73
2021/01/17 05:00:09;;;;;;;0.30;0.30;;;-0.90;99.90;;;;;;5012189;28;20274;-74
2021/01/17 05:03:04;;;;;;;0.47;0.47;;;-1.00;99.90;;;;;;5032995;28;20194;-73
2021/01/17 05:05:46;;;;;;;0.50;0.50;;;-1.00;99.90;;;;;;5031773;28;20185;-74
2021/01/17 05:08:26;;;;;;;0.40;0.40;;;-0.90;99.90;;;;;;5016093;28;20171;-76
2021/01/17 05:11:01;;;;;;;0.40;0.40;;;-0.90;99.90;;;;;;5032527;28;20210;-74
2021/01/17 05:13:33;;;;;;;0.50;0.50;;;-1.00;99.90;;;;;;5033079;28;20200;-75
2021/01/17 05:16:05;;;;;;;0.30;0.30;;;-1.00;99.90;;;;;;5031166;28;20173;-74
2021/01/17 05:18:31;;;;;;;0.30;0.30;;;-1.00;99.90;;;;;;5033656;28;20248;-75
2021/01/17 05:20:59;;;;;;;0.40;0.40;;;-1.00;99.90;;;;;;5028144;28;20636;-74
2021/01/17 05:23:33;;;;;;;0.30;0.30;;;-1.00;99.90;;;;;;5014088;28;20198;-73
2021/01/17 05:26:01;;;;;;;0.47;0.47;;;-1.00;99.90;;;;;;5029803;28;20180;-74
2021/01/17 05:28:28;;;;;;;0.40;0.40;;;-0.90;99.90;;;;;;5032028;28;20216;-74
2021/01/17 05:30:56;;;;;;;0.30;0.30;;;-1.00;99.90;;;;;;5023050;28;20634;-74
2021/01/17 05:33:27;;;;;;;0.30;0.30;;;-1.00;99.90;;;;;;5013055;28;20305;-74
2021/01/17 05:35:53;;;;;;;0.30;0.30;;;-1.00;99.90;;;;;;5027988;28;20174;-74
2021/01/17 05:38:19;;;;;;;0.47;0.47;;;-1.00;99.90;;;;;;5032750;28;20166;-74
2021/01/17 05:40:45;;;;;;;0.70;0.70;;;-1.00;99.90;;;;;;5031531;28;20194;-73
2021/01/17 05:43:10;;;;;;;0.40;0.40;;;-1.00;99.90;;;;;;5032513;28;20437;-75
2021/01/17 05:45:36;;;;;;;0.40;0.40;;;-0.90;99.90;;;;;;5028517;28;20186;-72
2021/01/17 05:48:05;;;;;;;0.37;0.37;;;-1.00;99.90;;;;;;5033128;28;20174;-74
2021/01/17 05:50:33;;;;;;;0.30;0.30;;;-0.90;99.90;;;;;;5032425;28;20933;-72
2021/01/17 05:52:59;;;;;;;1.35;1.25;;;-0.90;99.90;;;;;;5030910;28;20213;-75
2021/01/17 05:55:33;;;;;;;0.40;0.40;;;-0.90;99.90;;;;;;5018588;28;20194;-73
2021/01/17 05:58:24;;;;;;;0.30;0.30;;;-0.90;99.90;;;;;;5031224;28;20209;-74
2021/01/17 06:01:15;;;;;;;1.13;1.13;;;-0.90;99.90;;;;;;5019007;28;20674;-74
2021/01/17 06:03:58;;;;;;;0.40;0.40;;;-0.90;99.90;;;;;;5023136;28;20241;-73
2021/01/17 06:06:28;;;;;;;0.40;0.40;;;-0.90;99.90;;;;;;5012004;28;20266;-73
2021/01/17 06:08:56;;;;;;;3.00;1.67;;;-0.90;99.90;;;;;;5013491;28;20500;-73
2021/01/17 06:11:23;;;;;;;1.00;1.00;;;-0.90;99.90;;;;;;5032126;28;20174;-73
2021/01/17 06:14:00;;;;;;;1.60;1.58;;;-0.90;99.90;;;;;;5030824;28;20658;-72
2021/01/17 06:16:42;;;;;;;0.30;0.30;;;-0.80;99.90;;;;;;5031508;28;20185;-72
2021/01/17 06:19:09;;;;;;;0.30;0.30;;;-0.80;99.90;;;;;;5030419;28;20674;-73
2021/01/17 06:21:37;;;;;;;0.30;0.30;;;-0.80;99.90;;;;;;5031954;28;20193;-75
2021/01/17 06:24:07;;;;;;;0.30;0.30;;;-0.90;99.90;;;;;;5035037;28;20194;-74
2021/01/17 06:26:35;;;;;;;0.40;0.40;;;-0.90;99.90;;;;;;5036569;28;20175;-75
2021/01/17 06:29:05;;;;;;;8.90;1.45;;;-0.90;99.90;;;;;;5030130;28;20229;-73
2021/01/17 06:31:32;;;;;;;0.30;0.30;;;-0.90;99.90;;;;;;5034459;28;20610;-75
2021/01/17 06:34:18;;;;;;;0.30;0.30;;;-0.90;99.90;;;;;;5034313;28;20201;-73
2021/01/17 06:36:46;;;;;;;0.30;0.30;;;-0.90;99.90;;;;;;5035668;28;20277;-74
2021/01/17 06:39:23;;;;;;;0.30;0.30;;;-0.90;99.90;;;;;;5030575;28;20174;-73
2021/01/17 06:42:00;;;;;;;0.40;0.40;;;-0.90;99.90;;;;;;5034501;28;20667;-73
2021/01/17 06:44:31;;;;;;;0.40;0.40;;;-0.90;99.90;;;;;;5035442;28;20573;-75
2021/01/17 06:46:57;;;;;;;0.32;0.32;;;-1.00;99.90;;;;;;5025654;28;20178;-74
2021/01/17 06:49:25;;;;;;;0.40;0.40;;;-0.90;99.90;;;;;;5020483;28;20181;-73
2021/01/17 06:51:53;;;;;;;0.30;0.30;;;-1.00;99.90;;;;;;5035417;28;20206;-75
2021/01/17 06:54:21;;;;;;;0.50;0.50;;;-1.00;99.90;;;;;;5035155;28;20697;-74
2021/01/17 06:56:51;;;;;;;0.73;0.73;;;-1.00;99.90;;;;;;5034643;28;20634;-74
2021/01/17 06:59:31;;;;;;;0.40;0.40;;;-1.00;99.90;;;;;;5027355;28;20180;-75
2021/01/17 07:04:52;;;;;;;0.40;0.40;;;-0.90;99.90;;;;;;5024175;28;20293;-74
2021/01/17 07:07:43;;;;;;;0.30;0.30;;;-0.90;99.90;;;;;;5014688;28;20193;-72
2021/01/17 07:10:11;;;;;;;0.30;0.30;;;-0.90;99.90;;;;;;5015891;28;20535;-74
2021/01/17 07:12:44;;;;;;;0.30;0.30;;;-1.00;99.90;;;;;;5015297;28;20210;-76
2021/01/17 07:15:11;;;;;;;1.25;1.15;;;-1.00;99.90;;;;;;5027298;28;20178;-74
2021/01/17 07:17:40;;;;;;;0.30;0.30;;;-1.00;99.90;;;;;;5035230;28;20158;-75
2021/01/17 07:20:15;;;;;;;0.60;0.60;;;-1.00;99.90;;;;;;5034555;28;20170;-73
2021/01/17 07:22:46;;;;;;;0.40;0.40;;;-1.00;99.90;;;;;;5016992;28;20674;-75
2021/01/17 07:25:12;;;;;;;0.30;0.30;;;-1.00;99.90;;;;;;5050732;28;20262;-75
2021/01/17 07:27:59;;;;;;;1.33;1.33;;;-1.00;99.90;;;;;;5035378;28;20577;-69
2021/01/17 07:30:40;;;;;;;0.30;0.30;;;-1.00;99.90;;;;;;5028001;28;20428;-70
2021/01/17 07:33:07;;;;;;;0.30;0.30;;;-0.90;99.90;;;;;;5034032;28;20209;-71
2021/01/17 07:35:39;;;;;;;0.85;0.85;;;-0.90;99.90;;;;;;5034355;28;20492;-70
2021/01/17 07:38:18;;;;;;;0.45;0.45;;;-0.80;99.90;;;;;;5034054;28;20174;-74
2021/01/17 07:40:55;;;;;;;3.55;2.50;;;-0.80;99.90;;;;;;5028824;28;20511;-72
2021/01/17 07:43:24;;;;;;;0.30;0.30;;;-0.70;99.90;;;;;;5033533;28;20193;-72
2021/01/17 07:45:51;;;;;;;0.50;0.50;;;-0.70;99.90;;;;;;5034953;28;20172;-74
2021/01/17 07:48:18;;;;;;;0.30;0.30;;;-0.70;99.90;;;;;;5028516;28;20188;-75
2021/01/17 07:50:48;;;;;;;1.42;0.88;;;-0.70;99.90;;;;;;5029363;28;20224;-78
2021/01/17 07:53:38;;;;;;;3.55;1.38;;;-0.70;99.90;;;;;;5037792;28;20225;-71
2021/01/17 07:56:17;;;;;;;0.57;0.57;;;-0.60;99.90;;;;;;5035332;28;20171;-75
2021/01/17 07:58:44;;;;;;;0.30;0.30;;;-0.60;99.90;;;;;;5020486;28;20179;-74
2021/01/17 08:01:35;;;;;;;0.30;0.30;;;-0.60;99.90;;;;;;5031255;28;20174;-72
2021/01/17 08:04:04;;;;;;;0.30;0.30;;;-0.50;99.90;;;;;;5032201;28;20201;-72
2021/01/17 08:06:35;;;;;;;0.55;0.55;;;-0.50;99.90;;;;;;5034491;28;20537;-75
2021/01/17 08:09:08;;;;;;;0.30;0.30;;;-0.50;99.90;;;;;;5032000;28;20197;-75
2021/01/17 08:11:57;;;;;;;0.30;0.30;;;-0.50;99.90;;;;;;5034164;28;20232;-77
2021/01/17 08:14:35;;;;;;;0.40;0.40;;;-0.50;99.90;;;;;;5014637;28;20831;-78
2021/01/17 08:17:04;;;;;;;1.00;0.80;;;-0.40;99.90;;;;;;5012288;28;20214;-78
2021/01/17 08:19:46;;;;;;;0.30;0.30;;;-0.30;99.90;;;;;;5030726;28;20198;-78
2021/01/17 08:22:18;;;;;;;0.30;0.30;;;-0.30;99.90;;;;;;5029756;28;20174;-79
2021/01/17 08:24:45;;;;;;;0.30;0.30;;;-0.20;99.90;;;;;;5013123;28;20205;-79
2021/01/17 08:27:32;;;;;;;0.30;0.30;;;-0.20;99.90;;;;;;5022289;28;20174;-78
2021/01/17 08:30:00;;;;;;;0.40;0.40;;;-0.20;99.90;;;;;;5019092;28;20576;-74
2021/01/17 08:32:29;;;;;;;0.40;0.40;;;-0.10;99.90;;;;;;5016600;28;20211;-73
2021/01/17 08:34:55;;;;;;;0.30;0.30;;;-0.10;99.90;;;;;;5014131;28;20218;-70
2021/01/17 08:37:21;;;;;;;0.40;0.40;;;0.00;99.90;;;;;;5020735;28;20199;-69
2021/01/17 08:39:50;;;;;;;0.40;0.40;;;0.00;99.90;;;;;;5029175;28;20170;-70
2021/01/17 08:42:36;;;;;;;0.30;0.30;;;0.10;99.90;;;;;;5022475;28;20260;-72
2021/01/17 08:45:23;;;;;;;0.30;0.30;;;0.20;99.90;;;;;;5024860;28;20227;-73
2021/01/17 08:47:51;;;;;;;0.30;0.30;;;0.20;99.90;;;;;;5024164;28;20179;-70
2021/01/17 08:50:33;;;;;;;0.30;0.30;;;0.30;99.90;;;;;;5021792;28;20307;-72
2021/01/17 08:53:21;;;;;;;0.30;0.30;;;0.30;99.90;;;;;;5006951;28;20633;-70
2021/01/17 08:55:49;;;;;;;0.30;0.30;;;0.40;99.90;;;;;;5033613;28;20170;-71
2021/01/17 08:58:27;;;;;;;0.35;0.35;;;0.40;99.90;;;;;;5026692;28;20717;-70
2021/01/17 09:00:52;;;;;;;0.35;0.35;;;0.40;99.90;;;;;;5033327;28;20205;-66
2021/01/17 09:03:48;;;;;;;0.40;0.40;;;0.50;99.90;;;;;;5020096;28;20606;-69
2021/01/17 09:06:17;;;;;;;0.35;0.35;;;0.50;99.90;;;;;;5032962;28;20189;-68
2021/01/17 09:08:48;;;;;;;0.40;0.40;;;0.60;99.90;;;;;;5033033;28;20696;-68
2021/01/17 09:11:29;;;;;;;0.40;0.40;;;0.60;99.90;;;;;;5029171;28;20276;-69
2021/01/17 09:14:07;;;;;;;0.30;0.30;;;0.60;99.90;;;;;;5011759;28;20198;-73
2021/01/17 09:16:37;;;;;;;1.95;1.90;;;0.70;99.90;;;;;;5017271;28;20201;-68
2021/01/17 09:19:06;;;;;;;0.30;0.30;;;0.80;99.90;;;;;;5031296;28;20182;-69
2021/01/17 09:21:36;;;;;;;1.15;0.98;;;0.90;99.90;;;;;;5031117;28;20522;-69
2021/01/17 09:24:07;;;;;;;0.30;0.30;;;1.00;99.90;;;;;;5032853;28;20216;-69
2021/01/17 09:26:33;;;;;;;0.30;0.30;;;1.00;99.90;;;;;;5030347;28;20174;-68
2021/01/17 09:28:58;;;;;;;0.40;0.40;;;1.10;99.90;;;;;;5012221;28;20237;-68
2021/01/17 09:31:28;;;;;;;1.53;1.43;;;1.10;99.90;;;;;;5025049;28;20420;-68
2021/01/17 09:33:55;;;;;;;0.50;0.50;;;1.20;99.90;;;;;;5016804;28;20194;-67
2021/01/17 09:36:24;;;;;;;0.40;0.40;;;1.30;99.90;;;;;;5014114;28;20174;-69
2021/01/17 09:38:50;;;;;;;0.98;0.98;;;1.20;99.90;;;;;;5033443;28;20177;-69
2021/01/17 09:41:26;;;;;;;0.73;0.73;;;1.10;99.90;;;;;;5032544;28;20224;-69
2021/01/17 09:43:53;;;;;;;0.30;0.30;;;1.10;99.90;;;;;;5032968;28;20263;-67
2021/01/17 09:46:26;;;;;;;0.30;0.30;;;1.00;99.90;;;;;;5033151;28;20166;-68
2021/01/17 09:48:59;;;;;;;0.30;0.30;;;1.00;99.90;;;;;;5013542;28;20289;-69
2021/01/17 09:51:28;;;;;;;0.50;0.50;;;1.00;99.90;;;;;;5026610;28;20491;-69
2021/01/17 09:53:55;;;;;;;0.93;0.93;;;1.10;99.90;;;;;;5012439;28;20326;-69
2021/01/17 09:56:21;;;;;;;0.30;0.30;;;1.10;99.90;;;;;;5013919;28;20222;-68
2021/01/17 09:58:47;;;;;;;0.68;0.68;;;1.10;99.90;;;;;;5016187;28;20249;-69
2021/01/17 10:01:20;;;;;;;0.40;0.40;;;1.10;99.90;;;;;;5021143;28;20250;-70
2021/01/17 10:03:47;;;;;;;0.30;0.30;;;1.10;99.90;;;;;;5021920;28;20470;-69
2021/01/17 10:06:14;;;;;;;0.30;0.30;;;1.10;99.90;;;;;;5029011;28;20182;-69
2021/01/17 10:08:40;;;;;;;0.75;0.75;;;1.20;99.90;;;;;;5017098;28;20175;-70
2021/01/17 10:11:06;;;;;;;0.33;0.33;;;1.30;99.90;;;;;;5026113;28;20234;-71
2021/01/17 10:13:34;;;;;;;0.30;0.30;;;1.30;99.90;;;;;;5036345;28;20291;-70
2021/01/17 10:16:00;;;;;;;0.40;0.40;;;1.50;99.90;;;;;;5030076;28;20180;-70
2021/01/17 10:18:26;;;;;;;0.77;0.67;;;1.60;99.90;;;;;;5016914;28;20639;-69
2021/01/17 10:20:54;;;;;;;0.50;0.50;;;1.70;99.90;;;;;;5025803;28;20541;-70
2021/01/17 10:23:28;;;;;;;0.38;0.38;;;1.70;99.90;;;;;;5034556;28;20682;-69
2021/01/17 10:25:55;;;;;;;0.30;0.30;;;1.80;99.90;;;;;;5025424;28;20206;-70
2021/01/17 10:28:25;;;;;;;0.30;0.30;;;1.80;99.90;;;;;;5018979;28;20186;-69
2021/01/17 10:30:57;;;;;;;0.30;0.30;;;1.70;99.90;;;;;;5035812;28;20260;-69
2021/01/17 10:33:23;;;;;;;0.30;0.30;;;1.70;99.90;;;;;;5034535;28;20205;-69
2021/01/17 10:35:50;;;;;;;0.40;0.40;;;1.70;99.90;;;;;;5035135;28;20174;-69
2021/01/17 10:38:18;;;;;;;0.40;0.40;;;1.80;99.90;;;;;;5036184;28;20166;-68
2021/01/17 10:40:45;;;;;;;0.30;0.30;;;1.70;99.90;;;;;;5035209;28;20232;-70
2021/01/17 10:43:32;;;;;;;1.05;0.95;;;1.60;99.90;;;;;;5035513;28;20197;-68
2021/01/17 10:46:07;;;;;;;0.60;0.60;;;1.60;99.90;;;;;;5033881;28;20205;-70
2021/01/17 10:48:41;;;;;;;0.43;0.43;;;1.50;99.90;;;;;;5036110;28;20170;-69
2021/01/17 10:51:11;;;;;;;1.55;1.05;;;1.50;99.90;;;;;;5022092;28;20206;-68
2021/01/17 10:53:49;;;;;;;0.30;0.28;;;1.50;99.90;;;;;;5015618;28;20617;-68
2021/01/17 10:56:20;;;;;;;3.95;3.75;;;1.50;99.90;;;;;;5034444;28;20581;-67
2021/01/17 10:58:47;;;;;;;0.30;0.30;;;1.50;99.90;;;;;;5032894;28;20173;-69
2021/01/17 11:01:13;;;;;;;0.30;0.30;;;1.60;99.90;;;;;;5032875;28;20510;-70
2021/01/17 11:03:41;;;;;;;2.20;2.10;;;1.60;99.90;;;;;;5033995;28;20182;-71
2021/01/17 11:06:14;;;;;;;0.30;0.30;;;1.60;99.90;;;;;;5031993;28;20193;-70
2021/01/17 11:08:57;;;;;;;0.30;0.30;;;1.60;99.90;;;;;;5033474;28;20182;-71
2021/01/17 11:11:41;;;;;;;0.60;0.60;;;1.60;99.90;;;;;;5021732;28;20676;-71
2021/01/17 11:14:07;;;;;;;0.30;0.30;;;1.70;99.90;;;;;;5032953;28;20187;-71
2021/01/17 11:16:41;;;;;;;0.47;0.47;;;1.80;99.90;;;;;;5035619;28;20181;-70
2021/01/17 11:19:14;;;;;;;0.30;0.30;;;1.80;99.90;;;;;;5034659;28;20622;-72
2021/01/17 11:21:42;;;;;;;0.30;0.30;;;1.90;99.90;;;;;;5034482;28;20220;-72
2021/01/17 11:24:08;;;;;;;0.30;0.30;;;1.80;99.90;;;;;;5032152;28;20549;-71
2021/01/17 11:26:35;;;;;;;0.30;0.30;;;1.90;99.90;;;;;;5015493;28;20166;-71
2021/01/17 11:29:03;;;;;;;0.65;0.65;;;1.90;99.90;;;;;;5017226;28;20171;-71
2021/01/17 11:31:29;;;;;;;1.13;1.05;;;2.10;99.90;;;;;;5035116;28;20331;-72
2021/01/17 11:33:55;;;;;;;0.30;0.30;;;2.20;99.90;;;;;;5025613;28;20602;-71
2021/01/17 11:36:23;;;;;;;0.30;0.30;;;2.20;99.90;;;;;;5033797;28;20451;-70
2021/01/17 11:38:58;;;;;;;0.30;0.30;;;2.20;99.90;;;;;;5034101;28;20831;-71
2021/01/17 11:41:44;;;;;;;0.40;0.40;;;2.20;99.90;;;;;;5034702;28;20503;-71
2021/01/17 11:44:15;;;;;;;0.30;0.30;;;2.20;99.90;;;;;;5024887;28;20257;-70
2021/01/17 11:46:42;;;;;;;0.30;0.30;;;2.20;99.90;;;;;;5033363;28;20174;-71
2021/01/17 11:49:09;;;;;;;0.30;0.30;;;2.20;99.90;;;;;;5033883;28;20170;-70
2021/01/17 11:51:36;;;;;;;1.60;1.10;;;2.20;99.90;;;;;;5034367;28;20162;-70
2021/01/17 11:54:19;;;;;;;0.55;0.55;;;2.10;99.90;;;;;;5033530;28;20190;-70
2021/01/17 11:56:45;;;;;;;1.73;1.63;;;2.20;99.90;;;;;;5034748;28;20709;-70
2021/01/17 11:59:26;;;;;;;0.40;0.40;;;2.20;99.90;;;;;;5029538;28;20224;-69
2021/01/17 12:01:52;;;;;;;0.45;0.45;;;2.30;99.90;;;;;;5034557;28;20177;-70
2021/01/17 12:04:26;;;;;;;0.30;0.30;;;2.20;99.90;;;;;;5033502;28;20209;-70
2021/01/17 12:07:06;;;;;;;0.30;0.30;;;2.20;99.90;;;;;;5035624;28;20742;-70
2021/01/17 12:09:34;;;;;;;4.85;4.38;;;2.30;99.90;;;;;;5018057;28;20178;-70
2021/01/17 12:12:19;;;;;;;0.40;0.40;;;2.30;99.90;;;;;;5014150;28;20206;-74
2021/01/17 12:14:45;;;;;;;0.30;0.30;;;2.30;99.90;;;;;;5030049;28;20205;-71
2021/01/17 12:17:11;;;;;;;0.30;0.30;;;2.30;99.90;;;;;;5033839;28;20174;-74
2021/01/17 12:19:38;;;;;;;0.30;0.30;;;2.30;99.90;;;;;;5033964;28;20676;-68
2021/01/17 12:22:05;;;;;;;4.10;2.85;;;2.30;99.90;;;;;;5029064;28;20662;-72
2021/01/17 12:24:33;;;;;;;1.23;1.23;;;2.30;99.90;;;;;;5030231;28;20206;-70
2021/01/17 12:26:58;;;;;;;0.73;0.73;;;2.20;99.90;;;;;;5032436;28;20213;-74
2021/01/17 12:29:24;;;;;;;1.63;1.53;;;2.20;99.90;;;;;;5033140;28;20257;-72
2021/01/17 12:31:51;;;;;;;0.30;0.30;;;2.10;99.90;;;;;;5028957;28;20194;-74
2021/01/17 12:34:18;;;;;;;0.38;0.38;;;2.10;99.90;;;;;;5033837;28;20425;-70
2021/01/17 12:36:45;;;;;;;0.30;0.30;;;2.20;99.90;;;;;;5033124;28;20174;-73
2021/01/17 12:39:13;;;;;;;0.40;0.40;;;2.20;99.90;;;;;;5032517;28;20174;-68
2021/01/17 12:41:43;;;;;;;0.30;0.30;;;2.10;99.90;;;;;;5024747;28;20224;-74
2021/01/17 12:44:12;;;;;;;0.30;0.30;;;2.10;99.90;;;;;;5033180;28;20197;-68
2021/01/17 12:46:38;;;;;;;0.40;0.40;;;2.20;99.90;;;;;;5023588;28;20198;-73
2021/01/17 12:49:04;;;;;;;0.40;0.40;;;2.30;99.90;;;;;;5013938;28;20195;-71
2021/01/17 12:51:30;;;;;;;4.40;2.73;;;2.30;99.90;;;;;;5021043;28;20927;-72
2021/01/17 12:53:56;;;;;;;0.40;0.40;;;2.30;99.90;;;;;;5032436;28;20428;-74
2021/01/17 12:56:22;;;;;;;1.63;1.53;;;2.20;99.90;;;;;;5032922;28;20193;-68
2021/01/17 12:58:48;;;;;;;0.53;0.53;;;2.30;99.90;;;;;;5033710;28;20170;-70
2021/01/17 13:01:14;;;;;;;0.80;0.80;;;2.20;99.90;;;;;;5026565;28;20651;-70
2021/01/17 13:03:40;;;;;;;0.30;0.30;;;2.20;99.90;;;;;;5013538;28;20189;-75
2021/01/17 13:06:07;;;;;;;0.70;0.70;;;2.20;99.90;;;;;;5014676;28;20630;-70
2021/01/17 13:08:34;;;;;;;0.40;0.40;;;2.20;99.90;;;;;;5013321;28;20167;-75